sensor_id;sensor_type;location;lat;lon;timestamp;P1;durP1;ratioP1;P2;durP2;ratioP2
11522;SDS011;70090;43.208;27.904;2023-07-28T00:01:43;5.70;;;4.13;;
11522;SDS011;70090;43.208;27.904;2023-07-28T00:04:09;8.37;;;4.10;;
11522;SDS011;70090;43.208;27.904;2023-07-28T00:06:36;8.70;;;5.20;;
11522;SDS011;70090;43.208;27.904;2023-07-28T00:09:03;5.67;;;4.67;;
11522;SDS011;70090;43.208;27.904;2023-07-28T00:11:30;12.23;;;4.43;;
11522;SDS011;70090;43.208;27.904;2023-07-28T00:13:57;4.80;;;3.90;;
11522;SDS011;70090;43.208;27.904;2023-07-28T00:16:24;6.30;;;3.50;;
11522;SDS011;70090;43.208;27.904;2023-07-28T00:18:52;4.97;;;2.80;;
11522;SDS011;70090;43.208;27.904;2023-07-28T00:21:18;4.40;;;2.90;;
11522;SDS011;70090;43.208;27.904;2023-07-28T00:23:45;5.57;;;3.03;;
11522;SDS011;70090;43.208;27.904;2023-07-28T00:26:12;2.83;;;2.60;;
11522;SDS011;70090;43.208;27.904;2023-07-28T00:28:39;4.10;;;2.43;;
11522;SDS011;70090;43.208;27.904;2023-07-28T00:31:06;2.50;;;2.30;;
11522;SDS011;70090;43.208;27.904;2023-07-28T00:33:33;3.17;;;2.30;;
11522;SDS011;70090;43.208;27.904;2023-07-28T00:36:01;5.17;;;2.20;;
11522;SDS011;70090;43.208;27.904;2023-07-28T00:38:28;2.53;;;2.13;;
11522;SDS011;70090;43.208;27.904;2023-07-28T00:40:55;3.43;;;2.10;;
11522;SDS011;70090;43.208;27.904;2023-07-28T00:43:22;4.63;;;2.40;;
11522;SDS011;70090;43.208;27.904;2023-07-28T00:45:48;2.20;;;2.00;;
11522;SDS011;70090;43.208;27.904;2023-07-28T00:48:16;3.90;;;2.30;;
11522;SDS011;70090;43.208;27.904;2023-07-28T00:50:45;6.20;;;2.70;;
11522;SDS011;70090;43.208;27.904;2023-07-28T00:53:15;2.87;;;2.40;;
11522;SDS011;70090;43.208;27.904;2023-07-28T00:55:42;3.20;;;2.40;;
11522;SDS011;70090;43.208;27.904;2023-07-28T00:58:09;4.10;;;2.70;;
11522;SDS011;70090;43.208;27.904;2023-07-28T01:00:36;3.60;;;2.40;;
11522;SDS011;70090;43.208;27.904;2023-07-28T01:03:03;4.03;;;2.57;;
11522;SDS011;70090;43.208;27.904;2023-07-28T01:05:32;4.03;;;2.50;;
11522;SDS011;70090;43.208;27.904;2023-07-28T01:08:23;4.00;;;2.50;;
11522;SDS011;70090;43.208;27.904;2023-07-28T01:10:54;3.33;;;2.30;;
11522;SDS011;70090;43.208;27.904;2023-07-28T01:13:21;5.17;;;2.50;;
11522;SDS011;70090;43.208;27.904;2023-07-28T01:15:48;6.07;;;2.60;;
11522;SDS011;70090;43.208;27.904;2023-07-28T01:18:15;4.07;;;2.83;;
11522;SDS011;70090;43.208;27.904;2023-07-28T01:20:42;5.23;;;2.60;;
11522;SDS011;70090;43.208;27.904;2023-07-28T01:23:14;4.50;;;2.70;;
11522;SDS011;70090;43.208;27.904;2023-07-28T01:25:53;3.60;;;2.20;;
11522;SDS011;70090;43.208;27.904;2023-07-28T01:28:27;4.03;;;2.20;;
11522;SDS011;70090;43.208;27.904;2023-07-28T01:30:55;5.23;;;2.70;;
11522;SDS011;70090;43.208;27.904;2023-07-28T01:33:21;4.67;;;2.50;;
11522;SDS011;70090;43.208;27.904;2023-07-28T01:35:48;6.47;;;2.60;;
11522;SDS011;70090;43.208;27.904;2023-07-28T01:38:15;4.77;;;3.13;;
11522;SDS011;70090;43.208;27.904;2023-07-28T01:40:42;4.27;;;2.70;;
11522;SDS011;70090;43.208;27.904;2023-07-28T01:43:09;6.60;;;2.57;;
11522;SDS011;70090;43.208;27.904;2023-07-28T01:45:37;7.57;;;2.90;;
11522;SDS011;70090;43.208;27.904;2023-07-28T01:48:04;7.37;;;3.23;;
11522;SDS011;70090;43.208;27.904;2023-07-28T01:50:33;6.03;;;3.00;;
11522;SDS011;70090;43.208;27.904;2023-07-28T01:53:00;6.63;;;3.57;;
11522;SDS011;70090;43.208;27.904;2023-07-28T01:55:27;8.53;;;3.60;;
11522;SDS011;70090;43.208;27.904;2023-07-28T01:57:55;5.03;;;3.60;;
11522;SDS011;70090;43.208;27.904;2023-07-28T02:00:23;6.00;;;4.00;;
11522;SDS011;70090;43.208;27.904;2023-07-28T02:02:52;6.47;;;4.03;;
11522;SDS011;70090;43.208;27.904;2023-07-28T02:05:19;7.63;;;4.50;;
11522;SDS011;70090;43.208;27.904;2023-07-28T02:07:46;5.13;;;4.13;;
11522;SDS011;70090;43.208;27.904;2023-07-28T02:10:13;5.73;;;4.00;;
11522;SDS011;70090;43.208;27.904;2023-07-28T02:12:40;5.67;;;4.40;;
11522;SDS011;70090;43.208;27.904;2023-07-28T02:15:07;7.30;;;4.23;;
11522;SDS011;70090;43.208;27.904;2023-07-28T02:17:34;8.23;;;4.17;;
11522;SDS011;70090;43.208;27.904;2023-07-28T02:20:03;8.30;;;4.60;;
11522;SDS011;70090;43.208;27.904;2023-07-28T02:22:30;5.27;;;4.47;;
11522;SDS011;70090;43.208;27.904;2023-07-28T02:24:57;6.97;;;4.53;;
11522;SDS011;70090;43.208;27.904;2023-07-28T02:27:27;7.43;;;5.03;;
11522;SDS011;70090;43.208;27.904;2023-07-28T02:29:54;8.77;;;4.57;;
11522;SDS011;70090;43.208;27.904;2023-07-28T02:32:20;9.60;;;5.50;;
11522;SDS011;70090;43.208;27.904;2023-07-28T02:34:47;9.97;;;5.40;;
11522;SDS011;70090;43.208;27.904;2023-07-28T02:37:16;10.43;;;5.40;;
11522;SDS011;70090;43.208;27.904;2023-07-28T02:39:43;12.93;;;5.47;;
11522;SDS011;70090;43.208;27.904;2023-07-28T02:42:10;11.87;;;5.57;;
11522;SDS011;70090;43.208;27.904;2023-07-28T02:44:36;8.13;;;5.13;;
11522;SDS011;70090;43.208;27.904;2023-07-28T02:47:03;9.60;;;5.37;;
11522;SDS011;70090;43.208;27.904;2023-07-28T02:49:31;12.80;;;6.10;;
11522;SDS011;70090;43.208;27.904;2023-07-28T02:51:58;13.63;;;7.03;;
11522;SDS011;70090;43.208;27.904;2023-07-28T02:54:26;17.10;;;6.80;;
11522;SDS011;70090;43.208;27.904;2023-07-28T02:56:53;11.20;;;7.00;;
11522;SDS011;70090;43.208;27.904;2023-07-28T02:59:20;13.53;;;6.60;;
11522;SDS011;70090;43.208;27.904;2023-07-28T03:01:48;9.10;;;6.17;;
11522;SDS011;70090;43.208;27.904;2023-07-28T03:04:17;14.53;;;6.23;;
11522;SDS011;70090;43.208;27.904;2023-07-28T03:06:45;15.27;;;6.70;;
11522;SDS011;70090;43.208;27.904;2023-07-28T03:09:12;9.87;;;6.70;;
11522;SDS011;70090;43.208;27.904;2023-07-28T03:11:41;15.70;;;7.50;;
11522;SDS011;70090;43.208;27.904;2023-07-28T03:14:08;16.23;;;7.73;;
11522;SDS011;70090;43.208;27.904;2023-07-28T03:16:36;13.30;;;7.30;;
11522;SDS011;70090;43.208;27.904;2023-07-28T03:19:03;11.13;;;7.20;;
11522;SDS011;70090;43.208;27.904;2023-07-28T03:21:30;13.60;;;6.87;;
11522;SDS011;70090;43.208;27.904;2023-07-28T03:23:57;12.63;;;6.70;;
11522;SDS011;70090;43.208;27.904;2023-07-28T03:26:24;15.80;;;6.93;;
11522;SDS011;70090;43.208;27.904;2023-07-28T03:28:53;13.60;;;6.43;;
11522;SDS011;70090;43.208;27.904;2023-07-28T03:31:19;11.70;;;6.50;;
11522;SDS011;70090;43.208;27.904;2023-07-28T03:33:46;8.40;;;6.43;;
11522;SDS011;70090;43.208;27.904;2023-07-28T03:36:13;12.70;;;7.00;;
11522;SDS011;70090;43.208;27.904;2023-07-28T03:38:40;10.17;;;5.83;;
11522;SDS011;70090;43.208;27.904;2023-07-28T03:41:06;9.30;;;5.10;;
11522;SDS011;70090;43.208;27.904;2023-07-28T03:43:34;11.80;;;4.97;;
11522;SDS011;70090;43.208;27.904;2023-07-28T03:46:02;10.67;;;4.97;;
11522;SDS011;70090;43.208;27.904;2023-07-28T03:48:29;7.97;;;4.60;;
11522;SDS011;70090;43.208;27.904;2023-07-28T03:50:56;5.37;;;4.43;;
11522;SDS011;70090;43.208;27.904;2023-07-28T03:53:23;8.47;;;4.20;;
11522;SDS011;70090;43.208;27.904;2023-07-28T03:55:49;5.93;;;4.20;;
11522;SDS011;70090;43.208;27.904;2023-07-28T03:58:16;6.30;;;4.27;;
11522;SDS011;70090;43.208;27.904;2023-07-28T04:00:43;6.87;;;4.63;;
11522;SDS011;70090;43.208;27.904;2023-07-28T04:03:11;6.53;;;5.03;;
11522;SDS011;70090;43.208;27.904;2023-07-28T04:05:38;8.17;;;5.47;;
11522;SDS011;70090;43.208;27.904;2023-07-28T04:08:05;8.00;;;5.77;;
11522;SDS011;70090;43.208;27.904;2023-07-28T04:10:32;8.83;;;6.00;;
11522;SDS011;70090;43.208;27.904;2023-07-28T04:12:59;9.37;;;6.10;;
11522;SDS011;70090;43.208;27.904;2023-07-28T04:15:26;8.63;;;6.33;;
11522;SDS011;70090;43.208;27.904;2023-07-28T04:17:52;8.90;;;5.93;;
11522;SDS011;70090;43.208;27.904;2023-07-28T04:20:21;11.30;;;6.00;;
11522;SDS011;70090;43.208;27.904;2023-07-28T04:22:47;6.53;;;5.77;;
11522;SDS011;70090;43.208;27.904;2023-07-28T04:25:14;10.20;;;6.17;;
11522;SDS011;70090;43.208;27.904;2023-07-28T04:27:41;8.83;;;6.43;;
11522;SDS011;70090;43.208;27.904;2023-07-28T04:30:08;10.37;;;6.77;;
11522;SDS011;70090;43.208;27.904;2023-07-28T04:32:36;7.93;;;6.17;;
11522;SDS011;70090;43.208;27.904;2023-07-28T04:35:03;7.80;;;6.00;;
11522;SDS011;70090;43.208;27.904;2023-07-28T04:37:32;8.80;;;6.40;;
11522;SDS011;70090;43.208;27.904;2023-07-28T04:39:58;8.10;;;5.67;;
11522;SDS011;70090;43.208;27.904;2023-07-28T04:42:25;6.57;;;5.37;;
11522;SDS011;70090;43.208;27.904;2023-07-28T04:44:52;6.93;;;6.23;;
11522;SDS011;70090;43.208;27.904;2023-07-28T04:50:04;6.83;;;6.00;;
11522;SDS011;70090;43.208;27.904;2023-07-28T04:52:33;9.07;;;6.03;;
11522;SDS011;70090;43.208;27.904;2023-07-28T04:55:00;11.70;;;6.47;;
11522;SDS011;70090;43.208;27.904;2023-07-28T04:57:27;9.40;;;6.87;;
11522;SDS011;70090;43.208;27.904;2023-07-28T04:59:54;9.73;;;6.20;;
11522;SDS011;70090;43.208;27.904;2023-07-28T05:02:21;7.87;;;5.90;;
11522;SDS011;70090;43.208;27.904;2023-07-28T05:04:48;10.03;;;6.00;;
11522;SDS011;70090;43.208;27.904;2023-07-28T05:07:15;10.13;;;5.67;;
11522;SDS011;70090;43.208;27.904;2023-07-28T05:09:43;7.50;;;5.80;;
11522;SDS011;70090;43.208;27.904;2023-07-28T05:12:10;10.03;;;6.20;;
11522;SDS011;70090;43.208;27.904;2023-07-28T05:14:37;8.53;;;6.03;;
11522;SDS011;70090;43.208;27.904;2023-07-28T05:17:04;8.13;;;6.50;;
11522;SDS011;70090;43.208;27.904;2023-07-28T05:19:31;9.80;;;6.93;;
11522;SDS011;70090;43.208;27.904;2023-07-28T05:21:58;9.37;;;7.43;;
11522;SDS011;70090;43.208;27.904;2023-07-28T05:24:25;12.10;;;8.00;;
11522;SDS011;70090;43.208;27.904;2023-07-28T05:26:53;10.50;;;8.70;;
11522;SDS011;70090;43.208;27.904;2023-07-28T05:29:20;14.67;;;9.00;;
11522;SDS011;70090;43.208;27.904;2023-07-28T05:31:47;13.07;;;8.80;;
11522;SDS011;70090;43.208;27.904;2023-07-28T05:34:14;11.87;;;7.63;;
11522;SDS011;70090;43.208;27.904;2023-07-28T05:36:40;13.20;;;8.80;;
11522;SDS011;70090;43.208;27.904;2023-07-28T05:39:07;17.33;;;8.80;;
11522;SDS011;70090;43.208;27.904;2023-07-28T05:41:34;10.90;;;8.00;;
11522;SDS011;70090;43.208;27.904;2023-07-28T05:44:04;10.00;;;8.10;;
11522;SDS011;70090;43.208;27.904;2023-07-28T05:46:31;13.77;;;7.87;;
11522;SDS011;70090;43.208;27.904;2023-07-28T05:48:57;9.20;;;7.50;;
11522;SDS011;70090;43.208;27.904;2023-07-28T05:51:24;9.57;;;8.47;;
11522;SDS011;70090;43.208;27.904;2023-07-28T05:53:51;17.67;;;8.03;;
11522;SDS011;70090;43.208;27.904;2023-07-28T05:56:18;11.00;;;7.77;;
11522;SDS011;70090;43.208;27.904;2023-07-28T05:58:45;9.00;;;7.10;;
11522;SDS011;70090;43.208;27.904;2023-07-28T06:01:14;9.63;;;6.50;;
11522;SDS011;70090;43.208;27.904;2023-07-28T06:03:41;10.27;;;5.80;;
11522;SDS011;70090;43.208;27.904;2023-07-28T06:06:07;9.77;;;5.93;;
11522;SDS011;70090;43.208;27.904;2023-07-28T06:08:34;9.33;;;5.43;;
11522;SDS011;70090;43.208;27.904;2023-07-28T06:11:03;11.43;;;6.17;;
11522;SDS011;70090;43.208;27.904;2023-07-28T06:13:30;13.17;;;6.47;;
11522;SDS011;70090;43.208;27.904;2023-07-28T06:15:57;10.67;;;5.73;;
11522;SDS011;70090;43.208;27.904;2023-07-28T06:18:26;9.13;;;6.20;;
11522;SDS011;70090;43.208;27.904;2023-07-28T06:20:52;10.97;;;6.80;;
11522;SDS011;70090;43.208;27.904;2023-07-28T06:23:19;7.17;;;6.30;;
11522;SDS011;70090;43.208;27.904;2023-07-28T06:25:46;12.63;;;6.23;;
11522;SDS011;70090;43.208;27.904;2023-07-28T06:28:13;9.77;;;5.93;;
11522;SDS011;70090;43.208;27.904;2023-07-28T06:30:40;14.20;;;6.40;;
11522;SDS011;70090;43.208;27.904;2023-07-28T06:33:07;12.07;;;6.57;;
11522;SDS011;70090;43.208;27.904;2023-07-28T06:35:36;13.80;;;6.60;;
11522;SDS011;70090;43.208;27.904;2023-07-28T06:38:03;9.47;;;7.10;;
11522;SDS011;70090;43.208;27.904;2023-07-28T06:40:30;13.47;;;6.93;;
11522;SDS011;70090;43.208;27.904;2023-07-28T06:42:57;10.40;;;7.07;;
11522;SDS011;70090;43.208;27.904;2023-07-28T06:45:24;12.10;;;7.00;;
11522;SDS011;70090;43.208;27.904;2023-07-28T06:47:51;10.43;;;6.90;;
11522;SDS011;70090;43.208;27.904;2023-07-28T06:50:18;11.80;;;7.47;;
11522;SDS011;70090;43.208;27.904;2023-07-28T06:52:46;13.60;;;6.80;;
11522;SDS011;70090;43.208;27.904;2023-07-28T06:55:15;11.83;;;6.80;;
11522;SDS011;70090;43.208;27.904;2023-07-28T06:57:41;11.03;;;7.37;;
11522;SDS011;70090;43.208;27.904;2023-07-28T07:00:09;11.40;;;6.40;;
11522;SDS011;70090;43.208;27.904;2023-07-28T07:02:36;8.27;;;6.60;;
11522;SDS011;70090;43.208;27.904;2023-07-28T07:05:04;9.83;;;6.43;;
11522;SDS011;70090;43.208;27.904;2023-07-28T07:07:32;9.23;;;6.17;;
11522;SDS011;70090;43.208;27.904;2023-07-28T07:10:00;15.57;;;6.20;;
11522;SDS011;70090;43.208;27.904;2023-07-28T07:12:27;7.87;;;6.33;;
11522;SDS011;70090;43.208;27.904;2023-07-28T07:14:54;13.73;;;7.70;;
11522;SDS011;70090;43.208;27.904;2023-07-28T07:17:21;8.53;;;5.67;;
11522;SDS011;70090;43.208;27.904;2023-07-28T07:19:48;9.50;;;5.87;;
11522;SDS011;70090;43.208;27.904;2023-07-28T07:22:15;9.77;;;5.73;;
11522;SDS011;70090;43.208;27.904;2023-07-28T07:24:42;7.87;;;6.07;;
11522;SDS011;70090;43.208;27.904;2023-07-28T07:27:10;10.10;;;6.20;;
11522;SDS011;70090;43.208;27.904;2023-07-28T07:29:37;8.10;;;6.10;;
11522;SDS011;70090;43.208;27.904;2023-07-28T07:32:04;12.50;;;6.77;;
11522;SDS011;70090;43.208;27.904;2023-07-28T07:34:32;12.67;;;7.07;;
11522;SDS011;70090;43.208;27.904;2023-07-28T07:37:02;11.70;;;7.23;;
11522;SDS011;70090;43.208;27.904;2023-07-28T07:39:29;7.10;;;5.90;;
11522;SDS011;70090;43.208;27.904;2023-07-28T07:41:56;8.30;;;5.43;;
11522;SDS011;70090;43.208;27.904;2023-07-28T07:44:25;9.20;;;5.27;;
11522;SDS011;70090;43.208;27.904;2023-07-28T07:46:53;9.37;;;5.90;;
11522;SDS011;70090;43.208;27.904;2023-07-28T07:49:20;8.67;;;5.33;;
11522;SDS011;70090;43.208;27.904;2023-07-28T07:51:47;8.70;;;4.53;;
11522;SDS011;70090;43.208;27.904;2023-07-28T07:54:14;6.70;;;4.20;;
11522;SDS011;70090;43.208;27.904;2023-07-28T07:56:43;8.17;;;4.50;;
11522;SDS011;70090;43.208;27.904;2023-07-28T07:59:12;6.87;;;4.10;;
11522;SDS011;70090;43.208;27.904;2023-07-28T08:01:41;8.77;;;3.80;;
11522;SDS011;70090;43.208;27.904;2023-07-28T08:04:08;3.97;;;3.10;;
11522;SDS011;70090;43.208;27.904;2023-07-28T08:06:36;6.27;;;3.10;;
11522;SDS011;70090;43.208;27.904;2023-07-28T08:09:03;3.80;;;2.70;;
11522;SDS011;70090;43.208;27.904;2023-07-28T08:11:30;2.73;;;1.93;;
11522;SDS011;70090;43.208;27.904;2023-07-28T08:13:57;2.10;;;1.90;;
11522;SDS011;70090;43.208;27.904;2023-07-28T08:16:24;2.80;;;1.90;;
11522;SDS011;70090;43.208;27.904;2023-07-28T08:18:52;3.97;;;2.23;;
11522;SDS011;70090;43.208;27.904;2023-07-28T08:21:19;3.90;;;2.50;;
11522;SDS011;70090;43.208;27.904;2023-07-28T08:23:47;10.07;;;2.60;;
11522;SDS011;70090;43.208;27.904;2023-07-28T08:26:14;3.10;;;2.80;;
11522;SDS011;70090;43.208;27.904;2023-07-28T08:28:41;4.13;;;2.70;;
11522;SDS011;70090;43.208;27.904;2023-07-28T08:31:08;3.93;;;2.43;;
11522;SDS011;70090;43.208;27.904;2023-07-28T08:33:35;2.97;;;2.40;;
11522;SDS011;70090;43.208;27.904;2023-07-28T08:36:03;2.87;;;2.40;;
11522;SDS011;70090;43.208;27.904;2023-07-28T08:38:30;4.23;;;2.47;;
11522;SDS011;70090;43.208;27.904;2023-07-28T08:40:57;2.27;;;2.03;;
11522;SDS011;70090;43.208;27.904;2023-07-28T08:43:24;2.43;;;2.03;;
11522;SDS011;70090;43.208;27.904;2023-07-28T08:45:52;3.23;;;2.40;;
11522;SDS011;70090;43.208;27.904;2023-07-28T08:48:20;7.83;;;2.43;;
11522;SDS011;70090;43.208;27.904;2023-07-28T08:50:47;3.70;;;2.20;;
11522;SDS011;70090;43.208;27.904;2023-07-28T08:53:15;2.50;;;2.30;;
11522;SDS011;70090;43.208;27.904;2023-07-28T08:55:43;6.80;;;2.23;;
11522;SDS011;70090;43.208;27.904;2023-07-28T08:58:16;3.03;;;2.60;;
11522;SDS011;70090;43.208;27.904;2023-07-28T09:00:45;6.80;;;2.80;;
11522;SDS011;70090;43.208;27.904;2023-07-28T09:03:14;2.63;;;2.40;;
11522;SDS011;70090;43.208;27.904;2023-07-28T09:05:41;5.33;;;2.33;;
11522;SDS011;70090;43.208;27.904;2023-07-28T09:08:09;3.90;;;2.47;;
11522;SDS011;70090;43.208;27.904;2023-07-28T09:10:44;4.00;;;2.33;;
11522;SDS011;70090;43.208;27.904;2023-07-28T09:13:14;2.73;;;2.20;;
11522;SDS011;70090;43.208;27.904;2023-07-28T09:15:42;3.23;;;2.30;;
11522;SDS011;70090;43.208;27.904;2023-07-28T09:18:09;4.73;;;2.57;;
11522;SDS011;70090;43.208;27.904;2023-07-28T09:20:37;8.03;;;3.17;;
11522;SDS011;70090;43.208;27.904;2023-07-28T09:23:06;4.20;;;2.53;;
11522;SDS011;70090;43.208;27.904;2023-07-28T09:25:34;5.37;;;2.63;;
11522;SDS011;70090;43.208;27.904;2023-07-28T09:28:03;4.97;;;2.80;;
11522;SDS011;70090;43.208;27.904;2023-07-28T09:30:42;3.00;;;2.50;;
11522;SDS011;70090;43.208;27.904;2023-07-28T09:33:11;2.97;;;2.37;;
11522;SDS011;70090;43.208;27.904;2023-07-28T09:35:46;7.13;;;2.47;;
11522;SDS011;70090;43.208;27.904;2023-07-28T09:38:16;4.60;;;2.47;;
11522;SDS011;70090;43.208;27.904;2023-07-28T09:40:45;3.50;;;2.20;;
11522;SDS011;70090;43.208;27.904;2023-07-28T09:43:13;3.60;;;2.17;;
11522;SDS011;70090;43.208;27.904;2023-07-28T09:45:41;3.37;;;2.30;;
11522;SDS011;70090;43.208;27.904;2023-07-28T09:48:09;5.87;;;2.60;;
11522;SDS011;70090;43.208;27.904;2023-07-28T09:50:39;2.57;;;2.37;;
11522;SDS011;70090;43.208;27.904;2023-07-28T09:53:08;3.07;;;2.33;;
11522;SDS011;70090;43.208;27.904;2023-07-28T09:55:37;2.50;;;2.30;;
11522;SDS011;70090;43.208;27.904;2023-07-28T09:58:08;3.93;;;2.50;;
11522;SDS011;70090;43.208;27.904;2023-07-28T10:00:38;3.53;;;2.33;;
11522;SDS011;70090;43.208;27.904;2023-07-28T10:03:06;3.20;;;2.37;;
11522;SDS011;70090;43.208;27.904;2023-07-28T10:05:34;4.60;;;2.30;;
11522;SDS011;70090;43.208;27.904;2023-07-28T10:08:01;2.93;;;2.17;;
11522;SDS011;70090;43.208;27.904;2023-07-28T10:10:30;2.50;;;2.20;;
11522;SDS011;70090;43.208;27.904;2023-07-28T10:12:58;3.70;;;2.00;;
11522;SDS011;70090;43.208;27.904;2023-07-28T10:15:29;2.40;;;2.00;;
11522;SDS011;70090;43.208;27.904;2023-07-28T10:17:59;2.40;;;2.20;;
11522;SDS011;70090;43.208;27.904;2023-07-28T10:20:33;2.67;;;2.10;;
11522;SDS011;70090;43.208;27.904;2023-07-28T10:23:04;3.30;;;2.10;;
11522;SDS011;70090;43.208;27.904;2023-07-28T10:25:33;2.47;;;2.03;;
11522;SDS011;70090;43.208;27.904;2023-07-28T10:28:01;2.80;;;2.20;;
11522;SDS011;70090;43.208;27.904;2023-07-28T10:30:29;3.30;;;2.00;;
11522;SDS011;70090;43.208;27.904;2023-07-28T10:33:04;2.97;;;1.90;;
11522;SDS011;70090;43.208;27.904;2023-07-28T10:35:32;2.63;;;2.00;;
11522;SDS011;70090;43.208;27.904;2023-07-28T10:41:06;5.43;;;2.60;;
11522;SDS011;70090;43.208;27.904;2023-07-28T10:43:35;4.33;;;2.80;;
11522;SDS011;70090;43.208;27.904;2023-07-28T10:46:03;5.07;;;2.93;;
11522;SDS011;70090;43.208;27.904;2023-07-28T10:48:33;5.20;;;2.80;;
11522;SDS011;70090;43.208;27.904;2023-07-28T10:51:01;5.93;;;2.77;;
11522;SDS011;70090;43.208;27.904;2023-07-28T10:53:28;4.20;;;2.80;;
11522;SDS011;70090;43.208;27.904;2023-07-28T10:55:57;4.33;;;2.43;;
11522;SDS011;70090;43.208;27.904;2023-07-28T10:58:25;6.07;;;2.87;;
11522;SDS011;70090;43.208;27.904;2023-07-28T11:00:52;4.77;;;2.73;;
11522;SDS011;70090;43.208;27.904;2023-07-28T11:03:19;8.83;;;3.63;;
11522;SDS011;70090;43.208;27.904;2023-07-28T11:05:49;8.30;;;5.30;;
11522;SDS011;70090;43.208;27.904;2023-07-28T11:08:16;3.63;;;2.97;;
11522;SDS011;70090;43.208;27.904;2023-07-28T11:10:44;4.33;;;2.83;;
11522;SDS011;70090;43.208;27.904;2023-07-28T11:13:11;3.23;;;2.60;;
11522;SDS011;70090;43.208;27.904;2023-07-28T11:15:39;4.17;;;2.83;;
11522;SDS011;70090;43.208;27.904;2023-07-28T11:18:06;3.90;;;2.70;;
11522;SDS011;70090;43.208;27.904;2023-07-28T11:20:34;4.53;;;3.53;;
11522;SDS011;70090;43.208;27.904;2023-07-28T11:23:03;4.20;;;3.40;;
11522;SDS011;70090;43.208;27.904;2023-07-28T11:25:32;4.17;;;2.67;;
11522;SDS011;70090;43.208;27.904;2023-07-28T11:28:01;5.37;;;2.60;;
11522;SDS011;70090;43.208;27.904;2023-07-28T11:30:32;6.23;;;3.83;;
11522;SDS011;70090;43.208;27.904;2023-07-28T11:33:02;3.20;;;2.90;;
11522;SDS011;70090;43.208;27.904;2023-07-28T11:35:29;3.87;;;2.70;;
11522;SDS011;70090;43.208;27.904;2023-07-28T11:37:56;7.40;;;2.90;;
11522;SDS011;70090;43.208;27.904;2023-07-28T11:40:25;3.57;;;2.60;;
11522;SDS011;70090;43.208;27.904;2023-07-28T11:42:53;3.93;;;2.50;;
11522;SDS011;70090;43.208;27.904;2023-07-28T11:45:21;2.73;;;2.53;;
11522;SDS011;70090;43.208;27.904;2023-07-28T11:47:54;5.90;;;3.00;;
11522;SDS011;70090;43.208;27.904;2023-07-28T11:50:22;3.83;;;2.80;;
11522;SDS011;70090;43.208;27.904;2023-07-28T11:52:50;4.20;;;2.53;;
11522;SDS011;70090;43.208;27.904;2023-07-28T11:55:16;2.73;;;2.40;;
11522;SDS011;70090;43.208;27.904;2023-07-28T11:57:47;6.60;;;2.73;;
11522;SDS011;70090;43.208;27.904;2023-07-28T12:00:14;6.50;;;3.23;;
11522;SDS011;70090;43.208;27.904;2023-07-28T12:02:43;9.50;;;3.17;;
11522;SDS011;70090;43.208;27.904;2023-07-28T12:05:13;6.77;;;3.17;;
11522;SDS011;70090;43.208;27.904;2023-07-28T12:07:41;5.53;;;2.60;;
11522;SDS011;70090;43.208;27.904;2023-07-28T12:10:13;3.40;;;2.37;;
11522;SDS011;70090;43.208;27.904;2023-07-28T12:12:41;4.87;;;2.57;;
11522;SDS011;70090;43.208;27.904;2023-07-28T12:15:21;4.50;;;2.57;;
11522;SDS011;70090;43.208;27.904;2023-07-28T12:18:01;3.77;;;2.83;;
11522;SDS011;70090;43.208;27.904;2023-07-28T12:20:33;3.30;;;2.50;;
11522;SDS011;70090;43.208;27.904;2023-07-28T12:23:01;3.33;;;2.70;;
11522;SDS011;70090;43.208;27.904;2023-07-28T12:25:29;3.70;;;2.73;;
11522;SDS011;70090;43.208;27.904;2023-07-28T13:06:29;3.87;;;2.30;;
11522;SDS011;70090;43.208;27.904;2023-07-28T13:08:56;3.07;;;2.47;;
11522;SDS011;70090;43.208;27.904;2023-07-28T13:11:23;3.83;;;2.50;;
11522;SDS011;70090;43.208;27.904;2023-07-28T13:13:49;2.40;;;2.20;;
11522;SDS011;70090;43.208;27.904;2023-07-28T13:16:16;3.60;;;2.63;;
11522;SDS011;70090;43.208;27.904;2023-07-28T13:18:43;5.80;;;3.10;;
11522;SDS011;70090;43.208;27.904;2023-07-28T13:21:10;5.70;;;2.43;;
11522;SDS011;70090;43.208;27.904;2023-07-28T13:23:39;2.40;;;2.20;;
11522;SDS011;70090;43.208;27.904;2023-07-28T13:26:06;4.97;;;2.60;;
11522;SDS011;70090;43.208;27.904;2023-07-28T13:28:33;3.40;;;2.20;;
11522;SDS011;70090;43.208;27.904;2023-07-28T13:31:00;4.97;;;2.60;;
11522;SDS011;70090;43.208;27.904;2023-07-28T13:33:28;3.63;;;2.50;;
11522;SDS011;70090;43.208;27.904;2023-07-28T13:35:55;4.70;;;2.20;;
11522;SDS011;70090;43.208;27.904;2023-07-28T13:38:22;3.53;;;2.10;;
11522;SDS011;70090;43.208;27.904;2023-07-28T13:40:50;4.10;;;2.17;;
11522;SDS011;70090;43.208;27.904;2023-07-28T13:43:17;2.60;;;2.40;;
11522;SDS011;70090;43.208;27.904;2023-07-28T13:45:43;4.50;;;2.70;;
11522;SDS011;70090;43.208;27.904;2023-07-28T13:48:10;3.93;;;2.13;;
11522;SDS011;70090;43.208;27.904;2023-07-28T13:50:37;2.83;;;2.43;;
11522;SDS011;70090;43.208;27.904;2023-07-28T13:53:04;3.77;;;2.60;;
11522;SDS011;70090;43.208;27.904;2023-07-28T13:55:31;3.67;;;2.30;;
11522;SDS011;70090;43.208;27.904;2023-07-28T13:57:59;5.87;;;2.60;;
11522;SDS011;70090;43.208;27.904;2023-07-28T14:00:26;3.63;;;2.30;;
11522;SDS011;70090;43.208;27.904;2023-07-28T14:02:52;3.93;;;2.20;;
11522;SDS011;70090;43.208;27.904;2023-07-28T14:05:19;3.43;;;2.30;;
11522;SDS011;70090;43.208;27.904;2023-07-28T14:07:48;5.00;;;2.60;;
11522;SDS011;70090;43.208;27.904;2023-07-28T14:10:14;3.30;;;2.00;;
11522;SDS011;70090;43.208;27.904;2023-07-28T14:12:41;3.37;;;2.30;;
11522;SDS011;70090;43.208;27.904;2023-07-28T14:15:27;3.50;;;2.20;;
11522;SDS011;70090;43.208;27.904;2023-07-28T14:17:54;2.40;;;2.17;;
11522;SDS011;70090;43.208;27.904;2023-07-28T14:20:21;4.07;;;2.37;;
11522;SDS011;70090;43.208;27.904;2023-07-28T14:22:48;2.70;;;2.20;;
11522;SDS011;70090;43.208;27.904;2023-07-28T14:25:15;4.30;;;2.50;;
11522;SDS011;70090;43.208;27.904;2023-07-28T14:27:42;3.07;;;1.93;;
11522;SDS011;70090;43.208;27.904;2023-07-28T14:30:09;3.00;;;2.00;;
11522;SDS011;70090;43.208;27.904;2023-07-28T14:32:38;3.67;;;2.53;;
11522;SDS011;70090;43.208;27.904;2023-07-28T14:35:05;3.73;;;3.07;;
11522;SDS011;70090;43.208;27.904;2023-07-28T14:37:32;6.87;;;3.97;;
11522;SDS011;70090;43.208;27.904;2023-07-28T14:39:59;5.90;;;3.37;;
11522;SDS011;70090;43.208;27.904;2023-07-28T14:42:26;7.13;;;3.07;;
11522;SDS011;70090;43.208;27.904;2023-07-28T14:44:53;3.47;;;2.77;;
11522;SDS011;70090;43.208;27.904;2023-07-28T14:47:19;3.87;;;2.33;;
11522;SDS011;70090;43.208;27.904;2023-07-28T14:49:48;3.43;;;2.40;;
11522;SDS011;70090;43.208;27.904;2023-07-28T14:52:14;2.83;;;2.33;;
11522;SDS011;70090;43.208;27.904;2023-07-28T14:54:41;3.13;;;2.23;;
11522;SDS011;70090;43.208;27.904;2023-07-28T14:57:08;3.47;;;2.40;;
11522;SDS011;70090;43.208;27.904;2023-07-28T14:59:39;2.60;;;2.40;;
11522;SDS011;70090;43.208;27.904;2023-07-28T15:02:06;3.17;;;2.10;;
11522;SDS011;70090;43.208;27.904;2023-07-28T15:04:32;6.20;;;2.57;;
11522;SDS011;70090;43.208;27.904;2023-07-28T15:07:01;3.83;;;2.57;;
11522;SDS011;70090;43.208;27.904;2023-07-28T15:09:27;3.20;;;2.33;;
11522;SDS011;70090;43.208;27.904;2023-07-28T15:11:54;3.30;;;2.43;;
11522;SDS011;70090;43.208;27.904;2023-07-28T15:14:21;4.40;;;2.43;;
11522;SDS011;70090;43.208;27.904;2023-07-28T15:16:48;4.07;;;2.47;;
11522;SDS011;70090;43.208;27.904;2023-07-28T15:19:15;3.30;;;2.10;;